sensor_id;sensor_type;location;lat;lon;timestamp;P1;durP1;ratioP1;P2;durP2;ratioP2
3083;SDS011;1552;51.952;7.618;2023-08-24T00:01:10;3.63;;;2.67;;
3083;SDS011;1552;51.952;7.618;2023-08-24T00:03:37;5.80;;;2.78;;
3083;SDS011;1552;51.952;7.618;2023-08-24T00:06:04;11.23;;;3.33;;
3083;SDS011;1552;51.952;7.618;2023-08-24T00:08:31;4.85;;;3.17;;
3083;SDS011;1552;51.952;7.618;2023-08-24T00:10:57;6.03;;;2.75;;
3083;SDS011;1552;51.952;7.618;2023-08-24T00:13:23;5.30;;;3.30;;
3083;SDS011;1552;51.952;7.618;2023-08-24T00:15:51;3.25;;;2.38;;
3083;SDS011;1552;51.952;7.618;2023-08-24T00:18:18;7.60;;;2.90;;
3083;SDS011;1552;51.952;7.618;2023-08-24T00:20:46;4.90;;;3.28;;
3083;SDS011;1552;51.952;7.618;2023-08-24T00:23:13;6.53;;;3.17;;
3083;SDS011;1552;51.952;7.618;2023-08-24T00:25:39;12.40;;;3.88;;
3083;SDS011;1552;51.952;7.618;2023-08-24T00:28:06;4.22;;;2.75;;
3083;SDS011;1552;51.952;7.618;2023-08-24T00:30:32;6.03;;;3.08;;
3083;SDS011;1552;51.952;7.618;2023-08-24T00:33:00;4.97;;;3.33;;
3083;SDS011;1552;51.952;7.618;2023-08-24T00:35:27;4.95;;;2.72;;
3083;SDS011;1552;51.952;7.618;2023-08-24T00:37:53;5.72;;;2.92;;
3083;SDS011;1552;51.952;7.618;2023-08-24T00:40:19;7.57;;;3.50;;
3083;SDS011;1552;51.952;7.618;2023-08-24T00:42:46;11.15;;;4.03;;
3083;SDS011;1552;51.952;7.618;2023-08-24T00:45:12;5.22;;;3.40;;
3083;SDS011;1552;51.952;7.618;2023-08-24T00:47:39;6.03;;;4.30;;
3083;SDS011;1552;51.952;7.618;2023-08-24T00:50:08;8.00;;;3.35;;
3083;SDS011;1552;51.952;7.618;2023-08-24T00:52:35;5.50;;;3.33;;
3083;SDS011;1552;51.952;7.618;2023-08-24T00:55:03;5.10;;;3.20;;
3083;SDS011;1552;51.952;7.618;2023-08-24T00:57:29;5.38;;;3.53;;
3083;SDS011;1552;51.952;7.618;2023-08-24T00:59:56;5.43;;;3.13;;
3083;SDS011;1552;51.952;7.618;2023-08-24T01:02:23;3.55;;;3.20;;
3083;SDS011;1552;51.952;7.618;2023-08-24T01:04:49;3.67;;;3.10;;
3083;SDS011;1552;51.952;7.618;2023-08-24T01:07:17;6.03;;;4.03;;
3083;SDS011;1552;51.952;7.618;2023-08-24T01:09:43;9.02;;;4.00;;
3083;SDS011;1552;51.952;7.618;2023-08-24T01:12:12;4.55;;;3.35;;
3083;SDS011;1552;51.952;7.618;2023-08-24T01:14:44;6.10;;;3.40;;
3083;SDS011;1552;51.952;7.618;2023-08-24T01:17:13;8.20;;;3.95;;
3083;SDS011;1552;51.952;7.618;2023-08-24T01:19:42;4.88;;;3.25;;
3083;SDS011;1552;51.952;7.618;2023-08-24T01:22:13;9.07;;;4.85;;
3083;SDS011;1552;51.952;7.618;2023-08-24T01:24:45;5.85;;;2.97;;
3083;SDS011;1552;51.952;7.618;2023-08-24T01:27:14;6.00;;;3.53;;
3083;SDS011;1552;51.952;7.618;2023-08-24T01:29:40;6.80;;;3.40;;
3083;SDS011;1552;51.952;7.618;2023-08-24T01:32:09;6.10;;;2.90;;
3083;SDS011;1552;51.952;7.618;2023-08-24T01:34:36;5.57;;;3.38;;
3083;SDS011;1552;51.952;7.618;2023-08-24T01:37:02;3.85;;;2.95;;
3083;SDS011;1552;51.952;7.618;2023-08-24T01:39:31;4.53;;;3.05;;
3083;SDS011;1552;51.952;7.618;2023-08-24T01:42:00;5.32;;;3.58;;
3083;SDS011;1552;51.952;7.618;2023-08-24T01:44:30;4.80;;;3.05;;
3083;SDS011;1552;51.952;7.618;2023-08-24T01:47:01;3.20;;;2.42;;
3083;SDS011;1552;51.952;7.618;2023-08-24T01:49:28;6.00;;;3.70;;
3083;SDS011;1552;51.952;7.618;2023-08-24T01:51:55;5.15;;;3.30;;
3083;SDS011;1552;51.952;7.618;2023-08-24T01:54:22;4.95;;;3.40;;
3083;SDS011;1552;51.952;7.618;2023-08-24T01:56:48;9.88;;;3.65;;
3083;SDS011;1552;51.952;7.618;2023-08-24T01:59:15;5.85;;;3.42;;
3083;SDS011;1552;51.952;7.618;2023-08-24T02:01:42;8.30;;;3.58;;
3083;SDS011;1552;51.952;7.618;2023-08-24T02:04:09;4.07;;;3.20;;
3083;SDS011;1552;51.952;7.618;2023-08-24T02:06:35;7.32;;;3.85;;
3083;SDS011;1552;51.952;7.618;2023-08-24T02:09:01;4.80;;;3.72;;
3083;SDS011;1552;51.952;7.618;2023-08-24T02:11:28;6.90;;;3.58;;
3083;SDS011;1552;51.952;7.618;2023-08-24T02:13:54;7.68;;;3.72;;
3083;SDS011;1552;51.952;7.618;2023-08-24T02:16:21;13.00;;;4.15;;
3083;SDS011;1552;51.952;7.618;2023-08-24T02:18:49;6.05;;;3.45;;
3083;SDS011;1552;51.952;7.618;2023-08-24T02:21:16;6.55;;;3.63;;
3083;SDS011;1552;51.952;7.618;2023-08-24T02:23:42;9.30;;;3.92;;
3083;SDS011;1552;51.952;7.618;2023-08-24T02:26:08;5.22;;;3.85;;
3083;SDS011;1552;51.952;7.618;2023-08-24T02:28:35;15.68;;;3.67;;
3083;SDS011;1552;51.952;7.618;2023-08-24T02:31:02;4.28;;;3.53;;
3083;SDS011;1552;51.952;7.618;2023-08-24T02:33:28;5.63;;;4.50;;
3083;SDS011;1552;51.952;7.618;2023-08-24T02:35:56;6.38;;;4.13;;
3083;SDS011;1552;51.952;7.618;2023-08-24T02:38:23;7.43;;;4.45;;
3083;SDS011;1552;51.952;7.618;2023-08-24T02:40:49;8.35;;;3.80;;
3083;SDS011;1552;51.952;7.618;2023-08-24T02:43:25;7.60;;;4.00;;
3083;SDS011;1552;51.952;7.618;2023-08-24T02:45:53;4.97;;;3.42;;
3083;SDS011;1552;51.952;7.618;2023-08-24T02:48:19;6.45;;;4.38;;
3083;SDS011;1552;51.952;7.618;2023-08-24T02:50:45;7.03;;;4.50;;
3083;SDS011;1552;51.952;7.618;2023-08-24T02:53:13;5.88;;;4.03;;
3083;SDS011;1552;51.952;7.618;2023-08-24T02:55:40;12.27;;;4.80;;
3083;SDS011;1552;51.952;7.618;2023-08-24T02:58:06;9.32;;;5.63;;
3083;SDS011;1552;51.952;7.618;2023-08-24T03:00:33;9.40;;;4.47;;
3083;SDS011;1552;51.952;7.618;2023-08-24T03:02:59;8.63;;;4.70;;
3083;SDS011;1552;51.952;7.618;2023-08-24T03:05:25;9.18;;;4.88;;
3083;SDS011;1552;51.952;7.618;2023-08-24T03:07:52;4.85;;;4.00;;
3083;SDS011;1552;51.952;7.618;2023-08-24T03:10:20;5.97;;;3.63;;
3083;SDS011;1552;51.952;7.618;2023-08-24T03:12:46;7.43;;;4.18;;
3083;SDS011;1552;51.952;7.618;2023-08-24T03:15:13;9.20;;;4.38;;
3083;SDS011;1552;51.952;7.618;2023-08-24T03:17:39;6.85;;;4.97;;
3083;SDS011;1552;51.952;7.618;2023-08-24T03:20:06;8.45;;;5.22;;
3083;SDS011;1552;51.952;7.618;2023-08-24T03:22:33;7.80;;;5.25;;
3083;SDS011;1552;51.952;7.618;2023-08-24T03:25:00;8.68;;;4.82;;
3083;SDS011;1552;51.952;7.618;2023-08-24T03:27:27;7.75;;;4.55;;
3083;SDS011;1552;51.952;7.618;2023-08-24T03:29:54;14.73;;;4.88;;
3083;SDS011;1552;51.952;7.618;2023-08-24T03:32:20;6.68;;;4.05;;
3083;SDS011;1552;51.952;7.618;2023-08-24T03:34:47;9.77;;;5.35;;
3083;SDS011;1552;51.952;7.618;2023-08-24T03:37:13;21.73;;;5.95;;
3083;SDS011;1552;51.952;7.618;2023-08-24T03:39:40;9.20;;;4.55;;
3083;SDS011;1552;51.952;7.618;2023-08-24T03:42:07;9.15;;;5.13;;
3083;SDS011;1552;51.952;7.618;2023-08-24T03:44:35;9.65;;;5.95;;
3083;SDS011;1552;51.952;7.618;2023-08-24T03:47:01;6.97;;;4.45;;
3083;SDS011;1552;51.952;7.618;2023-08-24T03:49:27;8.52;;;4.88;;
3083;SDS011;1552;51.952;7.618;2023-08-24T03:51:54;5.80;;;4.85;;
3083;SDS011;1552;51.952;7.618;2023-08-24T03:54:20;24.27;;;6.93;;
3083;SDS011;1552;51.952;7.618;2023-08-24T03:56:47;8.82;;;6.43;;
3083;SDS011;1552;51.952;7.618;2023-08-24T03:59:13;12.48;;;6.47;;
3083;SDS011;1552;51.952;7.618;2023-08-24T04:01:41;11.50;;;7.00;;
3083;SDS011;1552;51.952;7.618;2023-08-24T04:04:07;7.13;;;5.57;;
3083;SDS011;1552;51.952;7.618;2023-08-24T04:06:33;10.52;;;6.95;;
3083;SDS011;1552;51.952;7.618;2023-08-24T04:09:01;8.32;;;6.55;;
3083;SDS011;1552;51.952;7.618;2023-08-24T04:11:27;9.43;;;6.57;;
3083;SDS011;1552;51.952;7.618;2023-08-24T04:13:54;8.50;;;6.57;;
3083;SDS011;1552;51.952;7.618;2023-08-24T04:16:20;15.43;;;6.32;;
3083;SDS011;1552;51.952;7.618;2023-08-24T04:18:48;10.30;;;7.07;;
3083;SDS011;1552;51.952;7.618;2023-08-24T04:21:14;11.63;;;6.88;;
3083;SDS011;1552;51.952;7.618;2023-08-24T04:23:40;8.43;;;6.25;;
3083;SDS011;1552;51.952;7.618;2023-08-24T04:26:10;11.70;;;7.70;;
3083;SDS011;1552;51.952;7.618;2023-08-24T04:28:36;10.18;;;6.60;;
3083;SDS011;1552;51.952;7.618;2023-08-24T04:31:02;12.23;;;6.40;;
3083;SDS011;1552;51.952;7.618;2023-08-24T04:33:29;8.27;;;6.53;;
3083;SDS011;1552;51.952;7.618;2023-08-24T04:35:57;12.18;;;7.60;;
3083;SDS011;1552;51.952;7.618;2023-08-24T04:38:28;9.27;;;6.28;;
3083;SDS011;1552;51.952;7.618;2023-08-24T04:40:55;10.35;;;6.25;;
3083;SDS011;1552;51.952;7.618;2023-08-24T04:43:22;13.40;;;7.25;;
3083;SDS011;1552;51.952;7.618;2023-08-24T04:45:50;9.38;;;7.15;;
3083;SDS011;1552;51.952;7.618;2023-08-24T04:48:17;13.25;;;6.60;;
3083;SDS011;1552;51.952;7.618;2023-08-24T04:50:44;10.88;;;6.53;;
3083;SDS011;1552;51.952;7.618;2023-08-24T04:53:13;10.55;;;6.88;;
3083;SDS011;1552;51.952;7.618;2023-08-24T04:55:40;11.13;;;6.45;;
3083;SDS011;1552;51.952;7.618;2023-08-24T04:58:06;9.38;;;6.93;;
3083;SDS011;1552;51.952;7.618;2023-08-24T05:00:33;9.98;;;7.28;;
3083;SDS011;1552;51.952;7.618;2023-08-24T05:03:00;10.60;;;6.57;;
3083;SDS011;1552;51.952;7.618;2023-08-24T05:05:26;10.80;;;6.88;;
3083;SDS011;1552;51.952;7.618;2023-08-24T05:07:54;11.50;;;6.55;;
3083;SDS011;1552;51.952;7.618;2023-08-24T05:10:22;17.30;;;7.82;;
3083;SDS011;1552;51.952;7.618;2023-08-24T05:12:48;8.15;;;6.55;;
3083;SDS011;1552;51.952;7.618;2023-08-24T05:15:14;12.10;;;7.25;;
3083;SDS011;1552;51.952;7.618;2023-08-24T05:17:41;11.98;;;6.97;;
3083;SDS011;1552;51.952;7.618;2023-08-24T05:20:07;11.32;;;7.22;;
3083;SDS011;1552;51.952;7.618;2023-08-24T05:22:35;14.50;;;7.25;;
3083;SDS011;1552;51.952;7.618;2023-08-24T05:25:02;10.07;;;6.03;;
3083;SDS011;1552;51.952;7.618;2023-08-24T05:27:30;11.30;;;6.93;;
3083;SDS011;1552;51.952;7.618;2023-08-24T05:29:57;11.15;;;6.68;;
3083;SDS011;1552;51.952;7.618;2023-08-24T05:32:23;10.90;;;6.65;;
3083;SDS011;1552;51.952;7.618;2023-08-24T05:34:49;9.85;;;6.25;;
3083;SDS011;1552;51.952;7.618;2023-08-24T05:37:16;17.55;;;7.07;;
3083;SDS011;1552;51.952;7.618;2023-08-24T05:39:42;11.73;;;7.15;;
3083;SDS011;1552;51.952;7.618;2023-08-24T05:42:09;9.52;;;6.90;;
3083;SDS011;1552;51.952;7.618;2023-08-24T05:44:36;13.63;;;8.80;;
3083;SDS011;1552;51.952;7.618;2023-08-24T05:47:03;19.05;;;9.23;;
3083;SDS011;1552;51.952;7.618;2023-08-24T05:49:30;12.57;;;8.90;;
3083;SDS011;1552;51.952;7.618;2023-08-24T05:51:56;9.77;;;7.00;;
3083;SDS011;1552;51.952;7.618;2023-08-24T05:54:22;10.48;;;8.90;;
3083;SDS011;1552;51.952;7.618;2023-08-24T05:56:49;12.68;;;8.45;;
3083;SDS011;1552;51.952;7.618;2023-08-24T05:59:15;15.18;;;9.40;;
3083;SDS011;1552;51.952;7.618;2023-08-24T06:01:43;12.45;;;9.20;;
3083;SDS011;1552;51.952;7.618;2023-08-24T06:04:09;11.35;;;9.27;;
3083;SDS011;1552;51.952;7.618;2023-08-24T06:06:35;10.90;;;8.23;;
3083;SDS011;1552;51.952;7.618;2023-08-24T06:09:02;11.68;;;9.27;;
3083;SDS011;1552;51.952;7.618;2023-08-24T06:11:30;10.57;;;7.93;;
3083;SDS011;1552;51.952;7.618;2023-08-24T06:13:56;12.63;;;8.40;;
3083;SDS011;1552;51.952;7.618;2023-08-24T06:16:23;12.15;;;8.27;;
3083;SDS011;1552;51.952;7.618;2023-08-24T06:18:51;25.52;;;10.60;;
3083;SDS011;1552;51.952;7.618;2023-08-24T06:21:17;12.88;;;10.07;;
3083;SDS011;1552;51.952;7.618;2023-08-24T06:23:43;14.80;;;9.50;;
3083;SDS011;1552;51.952;7.618;2023-08-24T06:26:12;16.08;;;10.60;;
3083;SDS011;1552;51.952;7.618;2023-08-24T06:28:38;12.75;;;9.77;;
3083;SDS011;1552;51.952;7.618;2023-08-24T06:31:05;14.25;;;10.00;;
3083;SDS011;1552;51.952;7.618;2023-08-24T06:33:33;14.20;;;10.30;;
3083;SDS011;1552;51.952;7.618;2023-08-24T06:36:01;16.42;;;9.55;;
3083;SDS011;1552;51.952;7.618;2023-08-24T06:38:27;16.98;;;10.60;;
3083;SDS011;1552;51.952;7.618;2023-08-24T06:40:54;24.30;;;10.23;;
3083;SDS011;1552;51.952;7.618;2023-08-24T06:43:20;18.70;;;11.18;;
3083;SDS011;1552;51.952;7.618;2023-08-24T06:45:47;16.88;;;11.00;;
3083;SDS011;1552;51.952;7.618;2023-08-24T06:48:13;14.50;;;8.90;;
3083;SDS011;1552;51.952;7.618;2023-08-24T06:50:39;14.02;;;9.95;;
3083;SDS011;1552;51.952;7.618;2023-08-24T06:53:07;15.55;;;9.45;;
3083;SDS011;1552;51.952;7.618;2023-08-24T06:55:34;15.23;;;10.68;;
3083;SDS011;1552;51.952;7.618;2023-08-24T06:58:01;15.40;;;10.18;;
3083;SDS011;1552;51.952;7.618;2023-08-24T07:00:30;15.15;;;9.85;;
3083;SDS011;1552;51.952;7.618;2023-08-24T07:02:56;13.70;;;9.52;;
3083;SDS011;1552;51.952;7.618;2023-08-24T07:05:23;13.52;;;9.88;;
3083;SDS011;1552;51.952;7.618;2023-08-24T07:07:49;12.77;;;9.15;;
3083;SDS011;1552;51.952;7.618;2023-08-24T07:10:17;12.38;;;9.18;;
3083;SDS011;1552;51.952;7.618;2023-08-24T07:12:44;14.32;;;9.73;;
3083;SDS011;1552;51.952;7.618;2023-08-24T07:15:11;12.82;;;9.82;;
3083;SDS011;1552;51.952;7.618;2023-08-24T07:17:37;17.17;;;9.95;;
3083;SDS011;1552;51.952;7.618;2023-08-24T07:20:04;12.77;;;8.95;;
3083;SDS011;1552;51.952;7.618;2023-08-24T07:22:31;22.10;;;9.25;;
3083;SDS011;1552;51.952;7.618;2023-08-24T07:24:58;17.10;;;9.82;;
3083;SDS011;1552;51.952;7.618;2023-08-24T07:27:26;12.27;;;9.20;;
3083;SDS011;1552;51.952;7.618;2023-08-24T07:29:53;17.67;;;9.45;;
3083;SDS011;1552;51.952;7.618;2023-08-24T07:32:20;13.70;;;8.75;;
3083;SDS011;1552;51.952;7.618;2023-08-24T07:34:46;15.38;;;8.43;;
3083;SDS011;1552;51.952;7.618;2023-08-24T07:37:12;16.77;;;9.77;;
3083;SDS011;1552;51.952;7.618;2023-08-24T07:39:42;13.45;;;8.57;;
3083;SDS011;1552;51.952;7.618;2023-08-24T07:42:08;13.70;;;9.05;;
3083;SDS011;1552;51.952;7.618;2023-08-24T07:44:36;12.52;;;8.85;;
3083;SDS011;1552;51.952;7.618;2023-08-24T07:47:02;10.73;;;7.50;;
3083;SDS011;1552;51.952;7.618;2023-08-24T07:49:29;10.55;;;7.90;;
3083;SDS011;1552;51.952;7.618;2023-08-24T07:51:56;11.77;;;8.98;;
3083;SDS011;1552;51.952;7.618;2023-08-24T07:54:24;11.18;;;8.13;;
3083;SDS011;1552;51.952;7.618;2023-08-24T07:56:51;13.98;;;7.38;;
3083;SDS011;1552;51.952;7.618;2023-08-24T07:59:17;13.73;;;8.88;;
3083;SDS011;1552;51.952;7.618;2023-08-24T08:01:45;12.60;;;8.10;;
3083;SDS011;1552;51.952;7.618;2023-08-24T08:04:14;13.13;;;9.18;;
3083;SDS011;1552;51.952;7.618;2023-08-24T08:06:53;13.02;;;7.85;;
3083;SDS011;1552;51.952;7.618;2023-08-24T08:09:20;12.00;;;9.35;;
3083;SDS011;1552;51.952;7.618;2023-08-24T08:11:47;15.30;;;7.95;;
3083;SDS011;1552;51.952;7.618;2023-08-24T08:16:59;10.23;;;7.05;;
3083;SDS011;1552;51.952;7.618;2023-08-24T08:19:25;9.18;;;6.90;;
3083;SDS011;1552;51.952;7.618;2023-08-24T08:21:53;11.50;;;7.18;;
3083;SDS011;1552;51.952;7.618;2023-08-24T08:24:19;13.15;;;7.82;;
3083;SDS011;1552;51.952;7.618;2023-08-24T08:26:45;10.85;;;7.20;;
3083;SDS011;1552;51.952;7.618;2023-08-24T08:29:12;8.90;;;6.57;;
3083;SDS011;1552;51.952;7.618;2023-08-24T08:31:38;9.70;;;6.88;;
3083;SDS011;1552;51.952;7.618;2023-08-24T08:34:06;9.50;;;6.75;;
3083;SDS011;1552;51.952;7.618;2023-08-24T08:36:33;9.52;;;7.13;;
3083;SDS011;1552;51.952;7.618;2023-08-24T08:38:59;17.98;;;7.13;;
3083;SDS011;1552;51.952;7.618;2023-08-24T08:41:27;12.30;;;7.07;;
3083;SDS011;1552;51.952;7.618;2023-08-24T08:43:53;14.00;;;6.45;;
3083;SDS011;1552;51.952;7.618;2023-08-24T08:46:20;12.27;;;7.15;;
3083;SDS011;1552;51.952;7.618;2023-08-24T08:48:47;12.77;;;6.13;;
3083;SDS011;1552;51.952;7.618;2023-08-24T08:51:16;9.05;;;6.32;;
3083;SDS011;1552;51.952;7.618;2023-08-24T08:53:44;9.27;;;5.63;;
3083;SDS011;1552;51.952;7.618;2023-08-24T08:56:11;8.93;;;6.20;;
3083;SDS011;1552;51.952;7.618;2023-08-24T08:58:37;9.20;;;6.30;;
3083;SDS011;1552;51.952;7.618;2023-08-24T09:01:05;8.13;;;5.68;;
3083;SDS011;1552;51.952;7.618;2023-08-24T09:03:31;9.38;;;5.38;;
3083;SDS011;1552;51.952;7.618;2023-08-24T09:05:58;8.90;;;5.22;;
3083;SDS011;1552;51.952;7.618;2023-08-24T09:08:26;9.40;;;5.90;;
3083;SDS011;1552;51.952;7.618;2023-08-24T09:10:53;8.82;;;5.38;;
3083;SDS011;1552;51.952;7.618;2023-08-24T09:13:20;8.25;;;5.53;;
3083;SDS011;1552;51.952;7.618;2023-08-24T09:15:46;8.13;;;5.15;;
3083;SDS011;1552;51.952;7.618;2023-08-24T09:18:13;7.57;;;4.30;;
3083;SDS011;1552;51.952;7.618;2023-08-24T09:20:39;10.98;;;4.63;;
3083;SDS011;1552;51.952;7.618;2023-08-24T09:23:06;6.93;;;4.60;;
3083;SDS011;1552;51.952;7.618;2023-08-24T09:25:45;5.43;;;3.85;;
3083;SDS011;1552;51.952;7.618;2023-08-24T09:28:12;8.35;;;4.57;;
3083;SDS011;1552;51.952;7.618;2023-08-24T09:30:39;7.47;;;4.20;;
3083;SDS011;1552;51.952;7.618;2023-08-24T09:33:09;5.05;;;3.58;;
3083;SDS011;1552;51.952;7.618;2023-08-24T09:35:35;7.55;;;4.00;;
3083;SDS011;1552;51.952;7.618;2023-08-24T09:38:15;9.82;;;4.18;;
3083;SDS011;1552;51.952;7.618;2023-08-24T09:40:44;7.03;;;4.00;;
3083;SDS011;1552;51.952;7.618;2023-08-24T09:43:14;7.45;;;3.92;;
3083;SDS011;1552;51.952;7.618;2023-08-24T09:45:47;6.22;;;4.22;;
3083;SDS011;1552;51.952;7.618;2023-08-24T09:48:13;6.82;;;4.30;;
3083;SDS011;1552;51.952;7.618;2023-08-24T09:50:39;7.93;;;4.43;;
3083;SDS011;1552;51.952;7.618;2023-08-24T09:53:07;5.97;;;4.13;;
3083;SDS011;1552;51.952;7.618;2023-08-24T09:55:36;5.20;;;4.25;;
3083;SDS011;1552;51.952;7.618;2023-08-24T09:58:05;9.00;;;4.00;;
3083;SDS011;1552;51.952;7.618;2023-08-24T10:00:34;6.75;;;4.25;;
3083;SDS011;1552;51.952;7.618;2023-08-24T10:03:02;10.40;;;4.68;;
3083;SDS011;1552;51.952;7.618;2023-08-24T10:05:29;9.02;;;4.30;;
3083;SDS011;1552;51.952;7.618;2023-08-24T10:07:57;6.38;;;4.10;;
3083;SDS011;1552;51.952;7.618;2023-08-24T10:10:25;9.02;;;5.55;;
3083;SDS011;1552;51.952;7.618;2023-08-24T10:12:52;11.93;;;5.20;;
3083;SDS011;1552;51.952;7.618;2023-08-24T10:15:24;9.23;;;4.05;;
3083;SDS011;1552;51.952;7.618;2023-08-24T10:17:52;8.40;;;4.38;;
3083;SDS011;1552;51.952;7.618;2023-08-24T10:20:19;6.65;;;4.07;;
3083;SDS011;1552;51.952;7.618;2023-08-24T10:22:46;9.30;;;4.13;;
3083;SDS011;1552;51.952;7.618;2023-08-24T10:25:13;7.47;;;4.88;;
3083;SDS011;1552;51.952;7.618;2023-08-24T10:27:42;6.95;;;4.20;;
3083;SDS011;1552;51.952;7.618;2023-08-24T10:30:11;5.65;;;3.88;;
3083;SDS011;1552;51.952;7.618;2023-08-24T10:32:38;4.57;;;3.38;;
3083;SDS011;1552;51.952;7.618;2023-08-24T10:35:07;4.93;;;3.38;;
3083;SDS011;1552;51.952;7.618;2023-08-24T10:37:34;5.32;;;3.25;;
3083;SDS011;1552;51.952;7.618;2023-08-24T10:40:00;8.63;;;3.17;;
3083;SDS011;1552;51.952;7.618;2023-08-24T10:42:28;6.05;;;3.80;;
3083;SDS011;1552;51.952;7.618;2023-08-24T10:45:02;5.07;;;3.35;;
3083;SDS011;1552;51.952;7.618;2023-08-24T10:47:32;6.95;;;3.65;;
3083;SDS011;1552;51.952;7.618;2023-08-24T10:50:12;4.93;;;3.10;;
3083;SDS011;1552;51.952;7.618;2023-08-24T10:52:38;6.28;;;3.50;;
3083;SDS011;1552;51.952;7.618;2023-08-24T10:55:21;5.68;;;2.55;;
3083;SDS011;1552;51.952;7.618;2023-08-24T10:57:54;3.13;;;2.38;;
3083;SDS011;1552;51.952;7.618;2023-08-24T11:00:22;3.78;;;2.40;;
3083;SDS011;1552;51.952;7.618;2023-08-24T11:02:49;6.07;;;3.30;;
3083;SDS011;1552;51.952;7.618;2023-08-24T11:05:18;7.13;;;2.30;;
3083;SDS011;1552;51.952;7.618;2023-08-24T11:07:55;6.30;;;3.30;;
3083;SDS011;1552;51.952;7.618;2023-08-24T11:10:30;3.83;;;3.30;;
3083;SDS011;1552;51.952;7.618;2023-08-24T11:13:07;4.75;;;2.67;;
3083;SDS011;1552;51.952;7.618;2023-08-24T11:15:36;7.30;;;3.38;;
3083;SDS011;1552;51.952;7.618;2023-08-24T11:18:19;5.40;;;2.38;;
3083;SDS011;1552;51.952;7.618;2023-08-24T11:20:51;6.93;;;2.60;;
3083;SDS011;1552;51.952;7.618;2023-08-24T11:23:17;3.20;;;2.50;;
3083;SDS011;1552;51.952;7.618;2023-08-24T11:25:44;4.70;;;2.80;;
3083;SDS011;1552;51.952;7.618;2023-08-24T11:28:10;4.07;;;2.80;;
3083;SDS011;1552;51.952;7.618;2023-08-24T11:30:37;4.07;;;2.50;;
3083;SDS011;1552;51.952;7.618;2023-08-24T11:33:03;4.20;;;2.63;;
3083;SDS011;1552;51.952;7.618;2023-08-24T11:35:34;5.43;;;2.25;;
3083;SDS011;1552;51.952;7.618;2023-08-24T11:40:43;4.45;;;2.65;;
3083;SDS011;1552;51.952;7.618;2023-08-24T11:43:10;4.32;;;2.97;;
3083;SDS011;1552;51.952;7.618;2023-08-24T11:45:36;7.85;;;2.60;;
3083;SDS011;1552;51.952;7.618;2023-08-24T11:48:07;6.47;;;3.03;;
3083;SDS011;1552;51.952;7.618;2023-08-24T11:50:37;4.80;;;3.53;;
3083;SDS011;1552;51.952;7.618;2023-08-24T11:53:06;3.88;;;3.45;;
3083;SDS011;1552;51.952;7.618;2023-08-24T11:55:32;4.10;;;2.75;;
3083;SDS011;1552;51.952;7.618;2023-08-24T11:58:00;2.72;;;2.50;;
3083;SDS011;1552;51.952;7.618;2023-08-24T12:00:27;7.03;;;3.50;;
3083;SDS011;1552;51.952;7.618;2023-08-24T12:02:55;5.95;;;3.00;;
3083;SDS011;1552;51.952;7.618;2023-08-24T12:05:23;4.38;;;2.90;;
3083;SDS011;1552;51.952;7.618;2023-08-24T12:07:51;4.28;;;3.17;;
3083;SDS011;1552;51.952;7.618;2023-08-24T12:10:18;7.75;;;3.20;;
3083;SDS011;1552;51.952;7.618;2023-08-24T12:12:44;8.10;;;3.17;;
3083;SDS011;1552;51.952;7.618;2023-08-24T12:15:18;5.22;;;3.00;;
3083;SDS011;1552;51.952;7.618;2023-08-24T12:17:45;5.72;;;3.10;;
3083;SDS011;1552;51.952;7.618;2023-08-24T12:20:18;2.90;;;2.60;;
3083;SDS011;1552;51.952;7.618;2023-08-24T12:22:49;4.18;;;2.80;;
3083;SDS011;1552;51.952;7.618;2023-08-24T12:25:16;4.53;;;2.58;;
3083;SDS011;1552;51.952;7.618;2023-08-24T12:27:42;5.38;;;3.00;;
3083;SDS011;1552;51.952;7.618;2023-08-24T12:30:10;4.20;;;2.60;;
3083;SDS011;1552;51.952;7.618;2023-08-24T12:32:44;5.07;;;2.97;;
3083;SDS011;1552;51.952;7.618;2023-08-24T12:35:10;3.40;;;2.45;;
3083;SDS011;1552;51.952;7.618;2023-08-24T12:37:37;3.47;;;2.88;;
3083;SDS011;1552;51.952;7.618;2023-08-24T12:40:03;3.38;;;2.40;;
3083;SDS011;1552;51.952;7.618;2023-08-24T12:42:38;4.32;;;2.63;;
3083;SDS011;1552;51.952;7.618;2023-08-24T12:45:04;5.43;;;2.65;;
3083;SDS011;1552;51.952;7.618;2023-08-24T12:47:31;6.97;;;2.97;;
3083;SDS011;1552;51.952;7.618;2023-08-24T12:50:01;6.75;;;2.55;;
3083;SDS011;1552;51.952;7.618;2023-08-24T12:52:28;2.65;;;2.22;;
3083;SDS011;1552;51.952;7.618;2023-08-24T12:54:55;3.67;;;1.98;;
3083;SDS011;1552;51.952;7.618;2023-08-24T12:57:21;2.72;;;1.80;;
3083;SDS011;1552;51.952;7.618;2023-08-24T12:59:52;4.60;;;2.22;;
3083;SDS011;1552;51.952;7.618;2023-08-24T13:02:19;5.15;;;1.70;;
3083;SDS011;1552;51.952;7.618;2023-08-24T13:04:46;3.05;;;1.83;;
3083;SDS011;1552;51.952;7.618;2023-08-24T13:07:14;3.75;;;2.20;;
3083;SDS011;1552;51.952;7.618;2023-08-24T13:09:40;4.97;;;2.10;;
3083;SDS011;1552;51.952;7.618;2023-08-24T13:12:13;2.85;;;2.35;;
3083;SDS011;1552;51.952;7.618;2023-08-24T13:14:39;4.57;;;2.13;;
3083;SDS011;1552;51.952;7.618;2023-08-24T13:17:06;4.53;;;2.13;;
3083;SDS011;1552;51.952;7.618;2023-08-24T13:19:32;2.63;;;1.95;;
3083;SDS011;1552;51.952;7.618;2023-08-24T13:21:58;8.65;;;2.30;;
3083;SDS011;1552;51.952;7.618;2023-08-24T13:24:26;5.60;;;1.95;;
3083;SDS011;1552;51.952;7.618;2023-08-24T13:26:52;5.32;;;2.03;;
3083;SDS011;1552;51.952;7.618;2023-08-24T13:29:19;3.33;;;1.90;;
3083;SDS011;1552;51.952;7.618;2023-08-24T13:31:45;5.35;;;2.03;;
3083;SDS011;1552;51.952;7.618;2023-08-24T13:34:11;3.22;;;2.13;;
3083;SDS011;1552;51.952;7.618;2023-08-24T13:36:38;2.75;;;2.05;;
3083;SDS011;1552;51.952;7.618;2023-08-24T13:39:04;3.17;;;2.33;;
3083;SDS011;1552;51.952;7.618;2023-08-24T13:41:32;2.67;;;2.05;;
3083;SDS011;1552;51.952;7.618;2023-08-24T13:43:58;4.75;;;2.22;;
3083;SDS011;1552;51.952;7.618;2023-08-24T13:46:24;3.38;;;2.33;;
3083;SDS011;1552;51.952;7.618;2023-08-24T13:48:51;2.65;;;2.30;;
3083;SDS011;1552;51.952;7.618;2023-08-24T13:51:17;2.13;;;1.92;;
3083;SDS011;1552;51.952;7.618;2023-08-24T13:53:43;5.38;;;1.90;;
3083;SDS011;1552;51.952;7.618;2023-08-24T13:56:10;5.20;;;2.00;;
3083;SDS011;1552;51.952;7.618;2023-08-24T13:58:37;2.83;;;2.40;;
3083;SDS011;1552;51.952;7.618;2023-08-24T14:01:04;6.30;;;2.40;;
3083;SDS011;1552;51.952;7.618;2023-08-24T14:03:30;4.35;;;2.25;;
3083;SDS011;1552;51.952;7.618;2023-08-24T14:05:57;2.80;;;2.22;;
3083;SDS011;1552;51.952;7.618;2023-08-24T14:08:23;4.70;;;2.00;;
3083;SDS011;1552;51.952;7.618;2023-08-24T14:10:51;3.67;;;2.20;;
3083;SDS011;1552;51.952;7.618;2023-08-24T14:13:17;3.88;;;1.98;;
3083;SDS011;1552;51.952;7.618;2023-08-24T14:15:45;3.45;;;2.35;;
3083;SDS011;1552;51.952;7.618;2023-08-24T14:18:11;3.97;;;2.15;;
3083;SDS011;1552;51.952;7.618;2023-08-24T14:20:38;4.78;;;2.58;;
3083;SDS011;1552;51.952;7.618;2023-08-24T14:23:04;3.55;;;2.00;;
3083;SDS011;1552;51.952;7.618;2023-08-24T14:25:31;5.95;;;2.22;;
3083;SDS011;1552;51.952;7.618;2023-08-24T14:27:57;5.53;;;2.53;;
3083;SDS011;1552;51.952;7.618;2023-08-24T14:30:23;4.30;;;2.60;;
3083;SDS011;1552;51.952;7.618;2023-08-24T14:32:51;3.80;;;2.00;;
3083;SDS011;1552;51.952;7.618;2023-08-24T14:35:17;4.43;;;2.33;;
3083;SDS011;1552;51.952;7.618;2023-08-24T14:37:44;7.40;;;2.05;;
3083;SDS011;1552;51.952;7.618;2023-08-24T14:40:10;7.78;;;2.33;;
3083;SDS011;1552;51.952;7.618;2023-08-24T14:42:37;5.97;;;2.40;;
3083;SDS011;1552;51.952;7.618;2023-08-24T14:45:03;4.95;;;2.85;;
3083;SDS011;1552;51.952;7.618;2023-08-24T14:47:30;4.95;;;2.58;;
3083;SDS011;1552;51.952;7.618;2023-08-24T14:49:58;5.03;;;2.70;;
3083;SDS011;1552;51.952;7.618;2023-08-24T14:52:24;10.32;;;2.25;;
3083;SDS011;1552;51.952;7.618;2023-08-24T14:54:51;4.82;;;2.20;;
3083;SDS011;1552;51.952;7.618;2023-08-24T14:57:20;6.80;;;2.53;;
3083;SDS011;1552;51.952;7.618;2023-08-24T14:59:46;9.90;;;2.53;;
3083;SDS011;1552;51.952;7.618;2023-08-24T15:02:12;3.85;;;2.40;;
3083;SDS011;1552;51.952;7.618;2023-08-24T15:04:39;6.20;;;2.35;;
3083;SDS011;1552;51.952;7.618;2023-08-24T15:07:07;3.88;;;2.10;;
3083;SDS011;1552;51.952;7.618;2023-08-24T15:09:34;4.85;;;2.17;;
3083;SDS011;1552;51.952;7.618;2023-08-24T15:12:01;4.35;;;2.67;;
3083;SDS011;1552;51.952;7.618;2023-08-24T15:14:30;4.72;;;2.28;;
3083;SDS011;1552;51.952;7.618;2023-08-24T15:16:57;3.42;;;2.28;;